Terminal Aerodrome Forecast
Issued by NWS

Home | Current Version | Previous Version | Text Only | Print | Product List | Glossary On
Versions: 1 2 3 4 5 6 7 8
000
FTUS45 KVEF 260500
TAFHND
TAF
KHND 260520Z 2606/2706 35015G25KT P6SM FEW100
     FM260800 35012KT P6SM SKC
     FM261700 35010KT P6SM FEW070
     FM270100 36008KT P6SM SKC=

USA.gov is the U.S. government's official web portal to all federal, state and local government web resources and services.